Time;durP1;ratioP1;P1;durP2;ratioP2;P2;SDS_P1;SDS_P2;PMS_P1;PMS_P2;Temp;Humidity;BMP_temperature;BMP_pressure;BME280_temperature;BME280_humidity;BME280_pressure;Samples;Min_cycle;Max_cycle;Signal;HPM_P1;HPM_P2
2024/02/02 00:02:14;;;;;;;20.40;9.33;;;;;;;-146.29;100.00;59205.81;5094108;28;20455;-68
2024/02/02 00:04:40;;;;;;;13.57;8.27;;;;;;;-146.29;100.00;59205.81;5075312;28;20206;-68
2024/02/02 00:07:05;;;;;;;17.03;7.20;;;;;;;-146.29;100.00;59205.81;5088736;28;20269;-67
2024/02/02 00:09:31;;;;;;;8.70;4.93;;;;;;;-146.29;100.00;59205.81;5083479;28;20182;-69
2024/02/02 00:11:56;;;;;;;8.33;5.70;;;;;;;-146.29;100.00;59205.81;5051078;28;20552;-68
2024/02/02 00:14:22;;;;;;;15.00;4.93;;;;;;;-146.29;100.00;59205.81;5069473;28;20190;-67
2024/02/02 00:16:47;;;;;;;9.70;5.60;;;;;;;-146.29;100.00;59205.81;5090447;28;20182;-69
2024/02/02 00:19:13;;;;;;;9.90;5.20;;;;;;;-146.29;100.00;59205.81;5077108;28;20180;-69
2024/02/02 00:21:38;;;;;;;11.20;5.63;;;;;;;-146.29;100.00;59205.81;5080734;28;20263;-69
2024/02/02 00:24:04;;;;;;;14.33;6.37;;;;;;;-146.29;100.00;59205.81;5088834;28;20577;-69
2024/02/02 00:26:30;;;;;;;9.27;5.10;;;;;;;-146.29;100.00;59205.81;5075025;28;20303;-68
2024/02/02 00:28:55;;;;;;;14.77;5.53;;;;;;;-146.29;100.00;59205.81;5073493;28;20581;-69
2024/02/02 00:31:22;;;;;;;9.03;4.87;;;;;;;-146.29;100.00;59205.81;5070420;28;20190;-67
2024/02/02 00:33:50;;;;;;;8.70;4.60;;;;;;;-146.29;100.00;59205.81;5080628;28;20693;-68
2024/02/02 00:36:16;;;;;;;9.97;4.83;;;;;;;-146.29;100.00;59205.81;5077346;28;20778;-68
2024/02/02 00:38:41;;;;;;;9.20;5.13;;;;;;;-146.29;100.00;59205.81;5081353;28;20439;-67
2024/02/02 00:41:07;;;;;;;7.13;4.30;;;;;;;-146.29;100.00;59205.81;5080278;28;20675;-67
2024/02/02 00:43:34;;;;;;;9.53;4.60;;;;;;;-146.29;100.00;59205.81;5064239;28;20207;-69
2024/02/02 00:45:59;;;;;;;8.07;4.20;;;;;;;-146.29;100.00;59205.81;5076822;28;20190;-71
2024/02/02 00:48:24;;;;;;;8.37;4.47;;;;;;;-146.29;100.00;59205.81;5095491;28;20461;-68
2024/02/02 00:50:50;;;;;;;7.90;4.60;;;;;;;-146.29;100.00;59205.81;5080004;28;20182;-68
2024/02/02 00:53:15;;;;;;;7.07;4.23;;;;;;;-146.29;100.00;59205.81;5074793;28;20189;-70
2024/02/02 00:55:41;;;;;;;8.53;4.67;;;;;;;-146.29;100.00;59205.81;5078438;28;20845;-69
2024/02/02 00:58:06;;;;;;;5.67;4.27;;;;;;;-146.29;100.00;59205.81;5058267;28;20182;-68
2024/02/02 01:00:32;;;;;;;6.43;4.70;;;;;;;-146.29;100.00;59205.81;5089792;28;20290;-69
2024/02/02 01:02:57;;;;;;;7.57;4.50;;;;;;;-146.29;100.00;59205.81;5058446;28;20182;-68
2024/02/02 01:05:22;;;;;;;8.03;5.03;;;;;;;-146.29;100.00;59205.81;5083970;28;20205;-68
2024/02/02 01:07:48;;;;;;;8.47;5.20;;;;;;;-146.29;100.00;59205.81;5070375;28;20186;-67
2024/02/02 01:10:16;;;;;;;9.23;4.53;;;;;;;-146.29;100.00;59205.81;5080663;28;20230;-69
2024/02/02 01:12:45;;;;;;;8.63;4.87;;;;;;;-146.29;100.00;59205.81;5082677;28;20610;-69
2024/02/02 01:15:10;;;;;;;8.27;5.07;;;;;;;-146.29;100.00;59205.81;5069843;28;20464;-68
2024/02/02 01:17:36;;;;;;;8.17;5.00;;;;;;;-146.29;100.00;59205.81;5075439;28;20993;-68
2024/02/02 01:20:03;;;;;;;10.40;5.30;;;;;;;-146.29;100.00;59205.81;5071667;28;20186;-68
2024/02/02 01:22:29;;;;;;;10.37;6.13;;;;;;;-146.29;100.00;59205.81;5082423;28;20228;-68
2024/02/02 01:24:55;;;;;;;8.90;5.80;;;;;;;-146.29;100.00;59205.81;5072026;28;20856;-69
2024/02/02 01:27:20;;;;;;;9.77;5.97;;;;;;;-146.29;100.00;59205.81;5079420;28;20423;-69
2024/02/02 01:29:46;;;;;;;9.67;6.37;;;;;;;-146.29;100.00;59205.81;5082677;28;20663;-70
2024/02/02 01:32:11;;;;;;;13.00;6.20;;;;;;;-146.29;100.00;59205.81;5081236;28;20209;-69
2024/02/02 01:34:37;;;;;;;11.37;5.67;;;;;;;-146.29;100.00;59205.81;5079372;28;20202;-67
2024/02/02 01:37:02;;;;;;;7.17;4.50;;;;;;;-146.29;100.00;59205.81;5072068;28;20182;-67
2024/02/02 01:39:28;;;;;;;7.80;4.03;;;;;;;-146.29;100.00;59205.81;5068459;28;20187;-68
2024/02/02 01:41:54;;;;;;;10.43;4.83;;;;;;;-146.29;100.00;59205.81;5074879;28;20209;-69
2024/02/02 01:44:19;;;;;;;9.57;4.60;;;;;;;-146.29;100.00;59205.81;5084433;28;20572;-68
2024/02/02 01:46:47;;;;;;;14.80;5.07;;;;;;;-146.29;100.00;59205.81;5100715;28;20437;-69
2024/02/02 01:49:13;;;;;;;6.20;3.97;;;;;;;-146.29;100.00;59205.81;5087798;28;20184;-69
2024/02/02 01:51:39;;;;;;;7.57;3.63;;;;;;;-146.29;100.00;59205.81;5074290;28;20425;-68
2024/02/02 01:54:05;;;;;;;8.73;4.40;;;;;;;-146.29;100.00;59205.81;5091134;28;20272;-66
2024/02/02 01:56:30;;;;;;;8.30;3.83;;;;;;;-146.29;100.00;59205.81;5075253;28;20522;-69
2024/02/02 01:58:56;;;;;;;7.57;3.57;;;;;;;-146.29;100.00;59205.81;5091129;28;20182;-69
2024/02/02 02:01:22;;;;;;;8.13;3.53;;;;;;;-146.29;100.00;59205.81;5084442;28;20233;-68
2024/02/02 02:03:47;;;;;;;6.27;3.53;;;;;;;-146.29;100.00;59205.81;5088752;28;20765;-68
2024/02/02 02:06:13;;;;;;;10.73;4.43;;;;;;;-146.29;100.00;59205.81;5092831;28;20190;-68
2024/02/02 02:08:39;;;;;;;6.37;4.37;;;;;;;-146.29;100.00;59205.81;5093653;28;20189;-67
2024/02/02 02:11:06;;;;;;;6.23;3.90;;;;;;;-146.29;100.00;59205.81;5081250;28;20940;-67
2024/02/02 02:13:32;;;;;;;3.67;3.37;;;;;;;-146.29;100.00;59205.81;5093974;28;20658;-67
2024/02/02 02:15:58;;;;;;;5.60;2.80;;;;;;;-146.29;100.00;59205.81;5088321;28;20432;-68
2024/02/02 02:18:24;;;;;;;7.60;3.10;;;;;;;-146.29;100.00;59205.81;5098722;28;20437;-68
2024/02/02 02:20:52;;;;;;;7.37;3.50;;;;;;;-146.29;100.00;59205.81;5092497;28;20249;-69
2024/02/02 02:23:17;;;;;;;9.60;3.37;;;;;;;-146.29;100.00;59205.81;5082602;28;20175;-68
2024/02/02 02:25:43;;;;;;;11.87;3.57;;;;;;;-146.29;100.00;59205.81;5086852;28;20428;-69
2024/02/02 02:28:08;;;;;;;14.70;3.63;;;;;;;-146.29;100.00;59205.81;5086909;28;20184;-68
2024/02/02 02:30:34;;;;;;;6.80;3.37;;;;;;;-146.29;100.00;59205.81;5087674;28;20178;-68
2024/02/02 02:32:59;;;;;;;10.03;4.00;;;;;;;-146.29;100.00;59205.81;5088772;28;20186;-69
2024/02/02 02:35:25;;;;;;;8.00;3.50;;;;;;;-146.29;100.00;59205.81;5075342;28;21010;-68
2024/02/02 02:37:50;;;;;;;8.40;2.90;;;;;;;-146.29;100.00;59205.81;5090967;28;20190;-67
2024/02/02 02:40:16;;;;;;;7.37;3.30;;;;;;;-146.29;100.00;59205.81;5099663;28;20186;-68
2024/02/02 02:42:41;;;;;;;6.43;3.50;;;;;;;-146.29;100.00;59205.81;5091450;28;20729;-69
2024/02/02 02:45:07;;;;;;;9.60;3.40;;;;;;;-146.29;100.00;59205.81;5047088;28;20202;-69
2024/02/02 02:47:32;;;;;;;9.87;3.80;;;;;;;-146.29;100.00;59205.81;5083534;28;20182;-67
2024/02/02 02:49:58;;;;;;;7.43;3.50;;;;;;;-146.29;100.00;59205.81;5094048;28;20186;-69
2024/02/02 02:52:23;;;;;;;6.73;3.30;;;;;;;-146.29;100.00;59205.81;5093532;28;20185;-68
2024/02/02 02:54:48;;;;;;;7.80;3.70;;;;;;;-146.29;100.00;59205.81;5096754;28;20209;-69
2024/02/02 02:57:14;;;;;;;7.40;3.50;;;;;;;-146.29;100.00;59205.81;5090746;28;20173;-69
2024/02/02 02:59:39;;;;;;;7.03;3.17;;;;;;;-146.29;100.00;59205.81;5073002;28;20180;-68
2024/02/02 03:02:05;;;;;;;8.03;3.37;;;;;;;-146.29;100.00;59205.81;5081955;28;20629;-68
2024/02/02 03:04:30;;;;;;;8.23;3.40;;;;;;;-146.29;100.00;59205.81;5085863;28;20220;-68
2024/02/02 03:06:56;;;;;;;9.50;3.60;;;;;;;-146.29;100.00;59205.81;5096337;28;20166;-68
2024/02/02 03:09:21;;;;;;;8.70;3.80;;;;;;;-146.29;100.00;59205.81;5093518;28;20184;-68
2024/02/02 03:11:47;;;;;;;5.63;3.43;;;;;;;-146.29;100.00;59205.81;5091006;28;20174;-68
2024/02/02 03:14:13;;;;;;;6.03;3.60;;;;;;;-146.29;100.00;59205.81;5090026;28;20209;-68
2024/02/02 03:16:39;;;;;;;8.10;3.83;;;;;;;-146.29;100.00;59205.81;5072018;28;20706;-68
2024/02/02 03:19:04;;;;;;;8.57;3.80;;;;;;;-146.29;100.00;59205.81;5098853;28;20420;-69
2024/02/02 03:21:30;;;;;;;9.13;3.53;;;;;;;-146.29;100.00;59205.81;5083929;28;20209;-68
2024/02/02 03:23:55;;;;;;;4.73;3.57;;;;;;;-146.29;100.00;59205.81;5099941;28;20197;-69
2024/02/02 03:26:21;;;;;;;8.10;3.80;;;;;;;-146.29;100.00;59205.81;5092672;28;20184;-69
2024/02/02 03:28:46;;;;;;;13.30;3.90;;;;;;;-146.29;100.00;59205.81;5090084;28;20185;-67
2024/02/02 03:31:12;;;;;;;6.70;3.20;;;;;;;-146.29;100.00;59205.81;5092513;28;20205;-69
2024/02/02 03:33:37;;;;;;;6.80;3.60;;;;;;;-146.29;100.00;59205.81;5090024;28;20197;-68
2024/02/02 03:36:03;;;;;;;5.67;3.67;;;;;;;-146.29;100.00;59205.81;5090521;28;20713;-68
2024/02/02 03:38:28;;;;;;;7.40;3.57;;;;;;;-146.29;100.00;59205.81;5066583;28;20191;-69
2024/02/02 03:40:54;;;;;;;13.10;3.90;;;;;;;-146.29;100.00;59205.81;5100411;28;20201;-69
2024/02/02 03:43:19;;;;;;;7.63;3.80;;;;;;;-146.29;100.00;59205.81;5089526;28;20177;-69
2024/02/02 03:45:45;;;;;;;8.40;3.53;;;;;;;-146.29;100.00;59205.81;5089024;28;20174;-69
2024/02/02 03:48:10;;;;;;;6.00;3.47;;;;;;;-146.29;100.00;59205.81;5070503;28;20259;-69
2024/02/02 03:50:36;;;;;;;4.90;3.23;;;;;;;-146.29;100.00;59205.81;5103206;28;20173;-68
2024/02/02 03:53:01;;;;;;;8.20;3.77;;;;;;;-146.29;100.00;59205.81;5077001;28;20218;-68
2024/02/02 03:55:27;;;;;;;6.47;3.83;;;;;;;-146.29;100.00;59205.81;5096876;28;20198;-68
2024/02/02 03:57:53;;;;;;;6.83;3.47;;;;;;;-146.29;100.00;59205.81;5098743;28;20192;-70
2024/02/02 04:00:18;;;;;;;5.50;3.30;;;;;;;-146.29;100.00;59205.81;5089316;28;20197;-68
2024/02/02 04:02:45;;;;;;;8.63;3.87;;;;;;;-146.29;100.00;59205.81;5089769;28;20182;-68
2024/02/02 04:05:11;;;;;;;10.27;4.50;;;;;;;-146.29;100.00;59205.81;5088132;28;20201;-68
2024/02/02 04:07:36;;;;;;;5.10;3.37;;;;;;;-146.29;100.00;59205.81;5083090;28;20434;-68
2024/02/02 04:10:03;;;;;;;6.30;3.83;;;;;;;-146.29;100.00;59205.81;5094379;28;20256;-69
2024/02/02 04:12:28;;;;;;;7.50;3.60;;;;;;;-146.29;100.00;59205.81;5102674;28;20605;-70
2024/02/02 04:14:54;;;;;;;6.50;3.20;;;;;;;-146.29;100.00;59205.81;5048080;28;20456;-69
2024/02/02 04:17:19;;;;;;;10.87;3.90;;;;;;;-146.29;100.00;59205.81;5087549;28;20946;-68
2024/02/02 04:19:44;;;;;;;9.13;3.90;;;;;;;-146.29;100.00;59205.81;5092410;28;20169;-68
2024/02/02 04:22:10;;;;;;;9.47;4.30;;;;;;;-146.29;100.00;59205.81;5095325;28;20895;-68
2024/02/02 04:24:36;;;;;;;4.80;3.60;;;;;;;-146.29;100.00;59205.81;5087581;28;20227;-69
2024/02/02 04:27:02;;;;;;;7.50;4.00;;;;;;;-146.29;100.00;59205.81;5096230;28;20181;-69
2024/02/02 04:29:27;;;;;;;7.00;3.50;;;;;;;-146.29;100.00;59205.81;5086911;28;20437;-68
2024/02/02 04:31:53;;;;;;;11.00;4.70;;;;;;;-146.29;100.00;59205.81;5090164;28;20361;-68
2024/02/02 04:34:18;;;;;;;12.50;4.50;;;;;;;-146.29;100.00;59205.81;5087951;28;20621;-67
2024/02/02 04:36:44;;;;;;;8.03;3.70;;;;;;;-146.29;100.00;59205.81;5081639;28;20200;-67
2024/02/02 04:39:09;;;;;;;4.00;3.57;;;;;;;-146.29;100.00;59205.81;5095908;28;20176;-67
2024/02/02 04:41:35;;;;;;;9.67;4.73;;;;;;;-146.29;100.00;59205.81;5090088;28;20197;-69
2024/02/02 04:44:00;;;;;;;5.07;3.33;;;;;;;-146.29;100.00;59205.81;5097178;28;20196;-69
2024/02/02 04:46:26;;;;;;;6.90;4.37;;;;;;;-146.29;100.00;59205.81;5092751;28;20178;-69
2024/02/02 04:48:51;;;;;;;7.87;3.97;;;;;;;-146.29;100.00;59205.81;5082272;28;20184;-68
2024/02/02 04:51:17;;;;;;;7.50;3.80;;;;;;;-146.29;100.00;59205.81;5083824;28;20174;-68
2024/02/02 04:53:43;;;;;;;5.57;3.50;;;;;;;-146.29;100.00;59205.81;5089534;28;20204;-67
2024/02/02 04:56:09;;;;;;;5.17;3.93;;;;;;;-146.29;100.00;59205.81;5064401;28;20177;-69
2024/02/02 04:58:34;;;;;;;5.23;3.87;;;;;;;-146.29;100.00;59205.81;5077892;28;20511;-68
2024/02/02 05:01:00;;;;;;;6.10;3.90;;;;;;;-146.29;100.00;59205.81;5091252;28;20212;-68
2024/02/02 05:03:25;;;;;;;7.93;4.00;;;;;;;-146.29;100.00;59205.81;5088087;28;20208;-69
2024/02/02 05:05:51;;;;;;;7.40;4.83;;;;;;;-146.29;100.00;59205.81;5088672;28;20204;-68
2024/02/02 05:08:16;;;;;;;9.50;4.10;;;;;;;-146.29;100.00;59205.81;5087945;28;20242;-69
2024/02/02 05:10:42;;;;;;;9.97;3.93;;;;;;;-146.29;100.00;59205.81;5087904;28;20181;-68
2024/02/02 05:13:07;;;;;;;6.07;4.37;;;;;;;-146.29;100.00;59205.81;5070255;28;20207;-66
2024/02/02 05:15:33;;;;;;;7.83;4.37;;;;;;;-146.29;100.00;59205.81;5088985;28;20205;-67
2024/02/02 05:17:58;;;;;;;6.10;4.30;;;;;;;-146.29;100.00;59205.81;5087849;28;20170;-67
2024/02/02 05:20:23;;;;;;;5.20;4.00;;;;;;;-146.29;100.00;59205.81;5088534;28;20181;-67
2024/02/02 05:22:49;;;;;;;9.07;4.47;;;;;;;-146.29;100.00;59205.81;5094662;28;20178;-68
2024/02/02 05:25:14;;;;;;;7.90;4.90;;;;;;;-146.29;100.00;59205.81;5083898;28;20189;-67
2024/02/02 05:27:40;;;;;;;5.80;3.80;;;;;;;-146.29;100.00;59205.81;5087443;28;20192;-66
2024/02/02 05:30:06;;;;;;;6.70;4.53;;;;;;;-146.29;100.00;59205.81;5088320;28;20185;-68
2024/02/02 05:32:31;;;;;;;8.20;4.20;;;;;;;-146.29;100.00;59205.81;5067538;28;20235;-67
2024/02/02 05:34:57;;;;;;;6.67;4.37;;;;;;;-146.29;100.00;59205.81;5073950;28;20197;-68
2024/02/02 05:37:22;;;;;;;7.33;4.27;;;;;;;-146.29;100.00;59205.81;5075222;28;20269;-68
2024/02/02 05:39:47;;;;;;;7.80;4.10;;;;;;;-146.29;100.00;59205.81;5081612;28;20850;-69
2024/02/02 05:42:16;;;;;;;7.47;4.20;;;;;;;-146.29;100.00;59205.81;5093872;28;20205;-67
2024/02/02 05:44:42;;;;;;;6.23;4.27;;;;;;;-146.29;100.00;59205.81;5089870;28;20206;-68
2024/02/02 05:47:08;;;;;;;6.97;4.47;;;;;;;-146.29;100.00;59205.81;5077485;28;20420;-67
2024/02/02 05:49:33;;;;;;;5.10;3.93;;;;;;;-146.29;100.00;59205.81;5089658;28;20442;-67
2024/02/02 05:52:00;;;;;;;5.53;4.30;;;;;;;-146.29;100.00;59205.81;5087163;28;20230;-67
2024/02/02 05:54:25;;;;;;;5.83;4.47;;;;;;;-146.29;100.00;59205.81;5086930;28;20755;-68
2024/02/02 05:56:50;;;;;;;7.70;4.43;;;;;;;-146.29;100.00;59205.81;5087070;28;20424;-67
2024/02/02 05:59:16;;;;;;;9.23;5.43;;;;;;;-146.29;100.00;59205.81;5079736;28;20182;-69
2024/02/02 06:01:41;;;;;;;7.60;5.10;;;;;;;-146.29;100.00;59205.81;5088054;28;20632;-66
2024/02/02 06:04:07;;;;;;;6.40;5.13;;;;;;;-146.29;100.00;59205.81;5086752;28;20208;-65
2024/02/02 06:06:33;;;;;;;5.70;4.90;;;;;;;-146.29;100.00;59205.81;5090915;28;20220;-68
2024/02/02 06:08:58;;;;;;;11.17;7.00;;;;;;;-146.29;100.00;59205.81;5091789;28;20415;-68
2024/02/02 06:11:24;;;;;;;24.77;15.70;;;;;;;-146.29;100.00;59205.81;5097435;28;20238;-68
2024/02/02 06:13:54;;;;;;;69.20;31.27;;;;;;;-146.29;100.00;59205.81;5090887;28;20681;-69
2024/02/02 06:16:20;;;;;;;66.43;33.83;;;;;;;-146.29;100.00;59205.81;5082867;28;20202;-69
2024/02/02 06:18:46;;;;;;;103.33;39.97;;;;;;;-146.29;100.00;59205.81;5066886;28;20424;-68
2024/02/02 06:21:11;;;;;;;72.17;33.10;;;;;;;-146.29;100.00;59205.81;5083295;28;21194;-68
2024/02/02 06:23:37;;;;;;;70.73;28.40;;;;;;;-146.29;100.00;59205.81;5076528;28;20490;-68
2024/02/02 06:26:02;;;;;;;59.87;25.50;;;;;;;-146.29;100.00;59205.81;5091171;28;20170;-68
2024/02/02 06:28:28;;;;;;;66.73;30.60;;;;;;;-146.29;100.00;59205.81;5086913;28;20182;-68
2024/02/02 06:30:53;;;;;;;16.53;7.97;;;;;;;-146.29;100.00;59205.81;5073364;28;20572;-68
2024/02/02 06:33:19;;;;;;;8.03;6.27;;;;;;;-146.29;100.00;59205.81;5087645;28;20547;-68
2024/02/02 06:35:44;;;;;;;7.13;5.50;;;;;;;-146.29;100.00;59205.81;5090425;28;21816;-68
2024/02/02 06:38:11;;;;;;;8.70;6.17;;;;;;;-146.29;100.00;59205.81;5083994;28;20174;-68
2024/02/02 06:40:37;;;;;;;10.20;6.67;;;;;;;-146.29;100.00;59205.81;5088951;28;20858;-69
2024/02/02 06:43:04;;;;;;;10.00;6.60;;;;;;;-146.29;100.00;59205.81;5072082;28;20475;-68
2024/02/02 06:45:30;;;;;;;11.87;7.37;;;;;;;-146.29;100.00;59205.81;5084804;28;20444;-67
2024/02/02 06:47:55;;;;;;;9.60;6.70;;;;;;;-146.29;100.00;59205.81;5075261;28;20418;-68
2024/02/02 06:50:21;;;;;;;7.17;5.70;;;;;;;-146.29;100.00;59205.81;5096524;28;20424;-69
2024/02/02 06:52:47;;;;;;;11.00;6.73;;;;;;;-146.29;100.00;59205.81;5078480;28;20193;-69
2024/02/02 06:55:12;;;;;;;12.43;7.00;;;;;;;-146.29;100.00;59205.81;5089518;28;20225;-68
2024/02/02 06:57:37;;;;;;;11.60;7.00;;;;;;;-146.29;100.00;59205.81;5080329;28;20250;-68
2024/02/02 07:00:04;;;;;;;10.97;7.07;;;;;;;-146.29;100.00;59205.81;5099396;28;20175;-70
2024/02/02 07:02:30;;;;;;;12.20;6.77;;;;;;;-146.29;100.00;59205.81;5080342;28;20298;-69
2024/02/02 07:04:57;;;;;;;10.47;7.47;;;;;;;-146.29;100.00;59205.81;5090956;28;20534;-69
2024/02/02 07:07:22;;;;;;;11.37;7.53;;;;;;;-146.29;100.00;59205.81;5043838;28;20949;-69
2024/02/02 07:09:54;;;;;;;15.53;7.80;;;;;;;-146.29;100.00;59205.81;5081529;28;20423;-68
2024/02/02 07:12:34;;;;;;;9.90;7.37;;;;;;;-146.29;100.00;59205.81;5073511;28;20178;-69
2024/02/02 07:15:10;;;;;;;12.67;7.40;;;;;;;-146.29;100.00;59205.81;5082857;28;20728;-68
2024/02/02 07:17:39;;;;;;;11.93;7.17;;;;;;;-146.29;100.00;59205.81;5090892;28;20424;-68
2024/02/02 07:20:08;;;;;;;14.10;7.43;;;;;;;-146.29;100.00;59205.81;5096084;28;20423;-68
2024/02/02 07:22:38;;;;;;;10.73;7.20;;;;;;;-146.29;100.00;59205.81;5073859;28;20481;-67
2024/02/02 07:25:10;;;;;;;8.33;7.43;;;;;;;-146.29;100.00;59205.81;5097312;28;20521;-69
2024/02/02 07:27:51;;;;;;;11.40;7.90;;;;;;;-146.29;100.00;59205.81;5097562;28;20416;-69
2024/02/02 07:30:44;;;;;;;11.77;6.70;;;;;;;-146.29;100.00;59205.81;5082871;28;20423;-68
2024/02/02 07:33:35;;;;;;;10.00;6.90;;;;;;;-146.29;100.00;59205.81;5075951;28;20492;-69
2024/02/02 07:36:01;;;;;;;53.10;31.17;;;;;;;-146.29;100.00;59205.81;5073810;28;20448;-70
2024/02/02 07:38:43;;;;;;;39.37;24.77;;;;;;;-146.29;100.00;59205.81;5078587;28;20439;-69
2024/02/02 07:41:23;;;;;;;18.73;12.53;;;;;;;-146.29;100.00;59205.81;5074100;28;20821;-68
2024/02/02 07:43:49;;;;;;;18.63;9.80;;;;;;;-146.29;100.00;59205.81;5077593;28;20451;-69
2024/02/02 07:46:15;;;;;;;16.30;9.87;;;;;;;-146.29;100.00;59205.81;5080121;28;20997;-69
2024/02/02 07:48:40;;;;;;;14.17;8.30;;;;;;;-146.29;100.00;59205.81;5076988;28;20435;-68
2024/02/02 07:51:07;;;;;;;13.77;8.17;;;;;;;-146.29;100.00;59205.81;5097418;28;20177;-69
2024/02/02 07:53:33;;;;;;;9.93;7.40;;;;;;;-146.29;100.00;59205.81;5070809;28;20264;-69
2024/02/02 07:55:58;;;;;;;9.00;7.33;;;;;;;-146.29;100.00;59205.81;5087656;28;20502;-69
2024/02/02 07:58:24;;;;;;;10.03;7.40;;;;;;;-146.29;100.00;59205.81;5102355;28;20412;-69
2024/02/02 08:00:50;;;;;;;11.60;7.63;;;;;;;-146.29;100.00;59205.81;5093502;28;20198;-68
2024/02/02 08:03:15;;;;;;;9.87;7.50;;;;;;;-146.29;100.00;59205.81;5077102;28;20201;-67
2024/02/02 08:05:41;;;;;;;10.60;7.70;;;;;;;-146.29;100.00;59205.81;5088676;28;20467;-68
2024/02/02 08:08:07;;;;;;;10.30;7.30;;;;;;;-146.29;100.00;59205.81;5089621;28;20668;-68
2024/02/02 08:10:33;;;;;;;9.83;7.13;;;;;;;-146.29;100.00;59205.81;5090214;28;20186;-68
2024/02/02 08:12:58;;;;;;;9.20;6.93;;;;;;;-146.29;100.00;59205.81;5097797;28;20650;-71
2024/02/02 08:15:24;;;;;;;9.73;6.90;;;;;;;-146.29;100.00;59205.81;5065985;28;20287;-70
2024/02/02 08:17:50;;;;;;;9.23;7.80;;;;;;;-146.29;100.00;59205.81;5095224;28;20190;-69
2024/02/02 08:20:16;;;;;;;11.70;8.30;;;;;;;-146.29;100.00;59205.81;5077796;28;20780;-68
2024/02/02 08:22:45;;;;;;;8.20;7.03;;;;;;;-146.29;100.00;59205.81;5076323;28;20460;-69
2024/02/02 08:25:10;;;;;;;10.37;8.00;;;;;;;-146.29;100.00;59205.81;5081053;28;20236;-70
2024/02/02 08:27:37;;;;;;;12.27;7.80;;;;;;;-146.29;100.00;59205.81;5085698;28;20496;-69
2024/02/02 08:30:03;;;;;;;10.53;7.70;;;;;;;-146.29;100.00;59205.81;5058790;28;20170;-69
2024/02/02 08:32:29;;;;;;;11.00;8.57;;;;;;;-146.29;100.00;59205.81;5057544;28;20482;-68
2024/02/02 08:34:54;;;;;;;11.40;8.90;;;;;;;-146.29;100.00;59205.81;5073464;28;20478;-69
2024/02/02 08:37:20;;;;;;;12.70;9.03;;;;;;;-146.29;100.00;59205.81;5034403;28;20181;-69
2024/02/02 08:39:45;;;;;;;12.30;8.90;;;;;;;-146.29;100.00;59205.81;5072967;28;20190;-68
2024/02/02 08:42:18;;;;;;;11.90;9.13;;;;;;;-146.29;100.00;59205.81;5078458;28;20202;-68
2024/02/02 08:44:44;;;;;;;18.60;12.40;;;;;;;-146.29;100.00;59205.81;5080884;28;20218;-68
2024/02/02 08:47:09;;;;;;;16.90;10.87;;;;;;;-146.29;100.00;59205.81;5081935;28;20440;-70
2024/02/02 08:49:55;;;;;;;13.17;7.83;;;;;;;-146.29;100.00;59205.81;5087512;28;20187;-69
2024/02/02 08:52:30;;;;;;;11.53;7.60;;;;;;;-146.29;100.00;59205.81;5082706;28;20182;-68
2024/02/02 08:54:56;;;;;;;8.47;6.90;;;;;;;-146.29;100.00;59205.81;5079684;28;20439;-68
2024/02/02 08:57:53;;;;;;;10.80;7.10;;;;;;;-146.29;100.00;59205.81;5077502;28;20430;-69
2024/02/02 09:00:38;;;;;;;10.03;6.80;;;;;;;-146.29;100.00;59205.81;5019330;28;20494;-70
2024/02/02 09:03:25;;;;;;;9.00;6.80;;;;;;;-146.29;100.00;59205.81;5079039;28;20912;-68
2024/02/02 09:05:55;;;;;;;8.63;6.37;;;;;;;-146.29;100.00;59205.81;5079416;28;20503;-69
2024/02/02 09:08:27;;;;;;;8.10;6.30;;;;;;;-146.29;100.00;59205.81;5079975;28;20424;-69
2024/02/02 09:10:58;;;;;;;9.83;6.57;;;;;;;-146.29;100.00;59205.81;5076838;28;20492;-69
2024/02/02 09:13:30;;;;;;;8.00;6.10;;;;;;;-146.29;100.00;59205.81;5066276;28;20435;-69
2024/02/02 09:15:55;;;;;;;14.57;6.50;;;;;;;-146.29;100.00;59205.81;5059212;28;20527;-69
2024/02/02 09:18:32;;;;;;;8.63;6.27;;;;;;;-146.29;100.00;59205.81;5071230;28;20598;-69
2024/02/02 09:21:00;;;;;;;6.93;6.23;;;;;;;-146.29;100.00;59205.81;5093188;28;20686;-70
2024/02/02 09:23:26;;;;;;;7.33;6.10;;;;;;;-146.29;100.00;59205.81;5082515;28;20465;-70
2024/02/02 09:25:51;;;;;;;7.90;5.93;;;;;;;-146.29;100.00;59205.81;5071313;28;20493;-69
2024/02/02 09:28:23;;;;;;;8.00;6.70;;;;;;;-146.29;100.00;59205.81;5063932;28;20451;-69
2024/02/02 09:30:48;;;;;;;8.70;6.30;;;;;;;-146.29;100.00;59205.81;5071414;28;20536;-68
2024/02/02 09:33:43;;;;;;;8.00;6.07;;;;;;;-146.29;100.00;59205.81;5089172;28;20523;-69
2024/02/02 09:36:08;;;;;;;8.43;6.00;;;;;;;-146.29;100.00;59205.81;5068497;28;20188;-69
2024/02/02 09:38:34;;;;;;;6.70;6.00;;;;;;;-146.29;100.00;59205.81;5056574;28;20425;-68
2024/02/02 09:41:00;;;;;;;6.50;5.80;;;;;;;-146.29;100.00;59205.81;5081575;28;20201;-71
2024/02/02 09:43:51;;;;;;;8.13;6.37;;;;;;;-146.29;100.00;59205.81;5079434;28;20455;-69
2024/02/02 09:46:59;;;;;;;6.80;5.97;;;;;;;-146.29;100.00;59205.81;5080711;28;20747;-68
2024/02/02 09:49:31;;;;;;;7.50;6.17;;;;;;;-146.29;100.00;59205.81;5042185;28;20431;-70
2024/02/02 09:52:14;;;;;;;5.73;5.20;;;;;;;-146.29;100.00;59205.81;5084405;28;20902;-68
2024/02/02 09:54:59;;;;;;;7.47;5.87;;;;;;;-146.29;100.00;59205.81;5067373;28;20475;-69
2024/02/02 09:57:50;;;;;;;7.57;5.20;;;;;;;-146.29;100.00;59205.81;5063365;28;20465;-69
2024/02/02 10:00:21;;;;;;;6.40;5.80;;;;;;;-146.29;100.00;59205.81;5077407;28;20408;-70
2024/02/02 10:02:56;;;;;;;6.93;5.97;;;;;;;-146.29;100.00;59205.81;5075299;28;20463;-70
2024/02/02 10:05:47;;;;;;;10.20;5.80;;;;;;;-146.29;100.00;59205.81;5050652;28;20456;-68
2024/02/02 10:08:41;;;;;;;15.23;5.10;;;;;;;-146.29;100.00;59205.81;5078289;28;20419;-70
2024/02/02 10:11:21;;;;;;;6.47;5.03;;;;;;;-146.29;100.00;59205.81;5081521;28;20588;-68
2024/02/02 10:14:02;;;;;;;6.90;5.13;;;;;;;-146.29;100.00;59205.81;5074375;28;20471;-69
2024/02/02 10:16:32;;;;;;;6.70;5.10;;;;;;;-146.29;100.00;59205.81;5073396;28;20832;-69
2024/02/02 10:19:06;;;;;;;5.90;4.67;;;;;;;-146.29;100.00;59205.81;5081226;28;20427;-69
2024/02/02 10:22:17;;;;;;;7.67;4.73;;;;;;;-146.29;100.00;59205.81;5080755;28;21142;-69
2024/02/02 10:24:57;;;;;;;8.20;5.17;;;;;;;-146.29;100.00;59205.81;5049322;28;20507;-69
2024/02/02 10:27:28;;;;;;;9.93;4.60;;;;;;;-146.29;100.00;59205.81;5078274;28;20977;-69
2024/02/02 10:30:17;;;;;;;5.33;4.80;;;;;;;-146.29;100.00;59205.81;5077845;28;20500;-67
2024/02/02 10:32:42;;;;;;;5.60;4.57;;;;;;;-146.29;100.00;59205.81;5052640;28;20412;-69
2024/02/02 10:35:29;;;;;;;5.30;4.40;;;;;;;-146.29;100.00;59205.81;5078326;28;20441;-70
2024/02/02 10:37:55;;;;;;;4.83;4.30;;;;;;;-146.29;100.00;59205.81;5060401;28;20261;-68
2024/02/02 10:40:27;;;;;;;5.20;4.60;;;;;;;-146.29;100.00;59205.81;5060269;28;20424;-68
2024/02/02 10:43:05;;;;;;;6.93;4.70;;;;;;;-146.29;100.00;59205.81;5086133;28;20464;-69
2024/02/02 10:46:06;;;;;;;6.33;4.60;;;;;;;-146.29;100.00;59205.81;5067920;28;20539;-70
2024/02/02 10:48:57;;;;;;;4.27;3.87;;;;;;;-146.29;100.00;59205.81;5023209;28;20513;-70
2024/02/02 10:52:04;;;;;;;5.17;3.83;;;;;;;-146.29;100.00;59205.81;5075828;28;20501;-69
2024/02/02 10:54:54;;;;;;;6.23;4.40;;;;;;;-146.29;100.00;59205.81;5060004;28;20440;-70
2024/02/02 10:57:31;;;;;;;6.43;4.30;;;;;;;-146.29;100.00;59205.81;5059809;28;20424;-71
2024/02/02 11:00:13;;;;;;;4.37;3.97;;;;;;;-146.29;100.00;59205.81;5079489;28;20427;-68
2024/02/02 11:02:57;;;;;;;4.57;4.17;;;;;;;-146.29;100.00;59205.81;5057060;28;20544;-70
2024/02/02 11:05:50;;;;;;;4.03;3.63;;;;;;;-146.29;100.00;59205.81;5073674;28;20452;-69
2024/02/02 11:08:24;;;;;;;3.30;2.70;;;;;;;-146.29;100.00;59205.81;5082636;28;20435;-69
2024/02/02 11:10:59;;;;;;;3.50;3.20;;;;;;;-146.29;100.00;59205.81;5062605;28;20427;-69
2024/02/02 11:13:46;;;;;;;3.20;2.83;;;;;;;-146.29;100.00;59205.81;5059825;28;20468;-70
2024/02/02 11:16:30;;;;;;;7.03;2.70;;;;;;;-146.29;100.00;59205.81;5056443;28;20424;-69